Shin Mei Maru — JG5617 — position and weather

sailwx.info

Track history (hours):
 
Tides and Currents Weather Stations Pressure Air Temp Water Temp Dewpoint Dewpoint Depression Visibility Wind Speed Wind Dir Waves Ship Positions

Shin Mei Maru

Last reported at 2016-Jun-30 06:32 UTC. Time now 2016-Jun-30 19:39 UTC.
Position N 35°02' E 139°35'.

Length 160 m; draft 6.8 m.

Type: Cargo ship. MMSI: 431100922.

Date/timePositionNaut miles runAvg speedWind from/ knotsBaromVisibWave heightAir tempDewpointWater temp
2016-Jun-30 06:32N 35°02' E 139°35'1616.7
2016-Jun-30 05:34N 35°15' E 139°46'1211.6
2016-Jun-30 04:33N 35°26' E 139°45'1211.5
2016-Jun-30 03:33N 35°38' E 139°46'0 0.1
2016-Jun-30 02:31N 35°38' E 139°46'0 0.0
2016-Jun-30 01:31N 35°38' E 139°46'0 0.0
2016-Jun-30 00:31N 35°38' E 139°46'0 0.0
2016-Jun-29 23:31N 35°38' E 139°46'0 0.0
2016-Jun-29 22:31N 35°38' E 139°46'1 0.6
2016-Jun-29 21:34N 35°37' E 139°46'1211.9
2016-Jun-29 20:34N 35°26' E 139°48'1111.1
2016-Jun-29 19:33N 35°15' E 139°47'1616.3
2016-Jun-29 18:34N 34°59' E 139°43'1414.5
2016-Jun-29 17:33N 34°52' E 139°58'1918.5
2016-Jun-29 16:33N 35°01' E 140°18'1818.5
2016-Jun-29 15:34N 35°13' E 140°35'2118.7
2016-Jun-29 14:25N 35°31' E 140°50'1919.6
2016-Jun-29 13:27N 35°47' E 141°01'2119.8
2016-Jun-29 12:25N 36°08' E 141°04'  
2016-Jun-25 17:33N 35°37' E 140°57'2020.3
2016-Jun-25 16:34N 35°21' E 140°42'2421.0
2016-Jun-25 15:24N 35°02' E 140°23'1720.4
2016-Jun-25 14:33N 34°54' E 140°04'1818.1
2016-Jun-25 13:34N 34°54' E 139°42'1818.5
2016-Jun-25 12:34N 35°12' E 139°46'1313.2
2016-Jun-25 11:34N 35°25' E 139°44'1111.4
2016-Jun-25 10:34N 35°37' E 139°46'1 1.3
2016-Jun-25 09:34N 35°38' E 139°46'0 0.0
2016-Jun-25 08:27N 35°38' E 139°46'0 0.0
2016-Jun-25 07:30N 35°38' E 139°46'0 0.0
2016-Jun-25 06:30N 35°38' E 139°46'0 0.0
2016-Jun-25 05:33N 35°38' E 139°46'0 0.0
2016-Jun-25 04:34N 35°38' E 139°46'10 9.8
2016-Jun-25 03:34N 35°30' E 139°52'1413.5
2016-Jun-25 02:33N 35°18' E 139°45'1515.1
2016-Jun-25 01:33N 35°03' E 139°44'24317.3
2016-Jun-24 11:33N 34°04' E 134°57'1918.7
2016-Jun-24 10:33N 34°23' E 135°01'1919.2
2016-Jun-24 09:34N 34°34' E 135°19'5 5.2
2016-Jun-24 08:33N 34°37' E 135°25'0 0.0
2016-Jun-24 07:29N 34°37' E 135°25'0 0.0
2016-Jun-24 01:23N 34°37' E 135°25'0 0.0
2016-Jun-24 00:29N 34°37' E 135°25'6 6.5
2016-Jun-23 23:33N 34°34' E 135°18'1918.8
2016-Jun-23 22:32N 34°20' E 135°02'1919.2
2016-Jun-23 21:33N 34°02' E 134°59'24615.4
2016-Jun-23 05:33N 35°12' E 139°46'1313.5
2016-Jun-23 04:34N 35°25' E 139°44'1212.5
2016-Jun-23 03:33N 35°38' E 139°46'0 0.4
2016-Jun-23 02:34N 35°38' E 139°46'0 0.0
2016-Jun-23 01:33N 35°38' E 139°46'0 0.0
2016-Jun-23 00:34N 35°38' E 139°46'0 0.0
2016-Jun-22 23:34N 35°38' E 139°46'0 0.0
2016-Jun-22 22:31N 35°38' E 139°46'0 0.3
2016-Jun-22 21:33N 35°38' E 139°46'1211.5
2016-Jun-22 20:33N 35°27' E 139°50'1211.6
2016-Jun-22 19:33N 35°15' E 139°47'1616.3
2016-Jun-22 18:33N 34°59' E 139°43'1312.8
2016-Jun-22 17:30N 34°51' E 139°56'1616.8
2016-Jun-22 16:33N 34°59' E 140°12'1816.9
2016-Jun-22 15:31N 35°10' E 140°30'1616.6
2016-Jun-22 14:33N 35°22' E 140°42'1716.6
2016-Jun-22 13:33N 35°36' E 140°54'2517.6
2016-Jun-22 12:07N 35°60' E 141°04'1118.6
2016-Jun-22 11:33N 36°10' E 141°05'  
Track history (hours):
 
Tides and Currents Weather Stations Pressure Air Temp Water Temp Dewpoint Dewpoint Depression Visibility Wind Speed Wind Dir Waves Ship Positions

Shin Mei Maru

Last reported at 2016-Jun-30 06:32 UTC. Time now 2016-Jun-30 19:39 UTC.
Position N 35°02' E 139°35'.

Length 160 m; draft 6.8 m.

Type: Cargo ship. MMSI: 431100922.

Date/timePositionNaut miles runAvg speedWind from/ knotsBaromVisibWave heightAir tempDewpointWater temp
2016-Jun-30 06:32N 35°02' E 139°35'1616.7
2016-Jun-30 05:34N 35°15' E 139°46'1211.6
2016-Jun-30 04:33N 35°26' E 139°45'1211.5
2016-Jun-30 03:33N 35°38' E 139°46'0 0.1
2016-Jun-30 02:31N 35°38' E 139°46'0 0.0
2016-Jun-30 01:31N 35°38' E 139°46'0 0.0
2016-Jun-30 00:31N 35°38' E 139°46'0 0.0
2016-Jun-29 23:31N 35°38' E 139°46'0 0.0
2016-Jun-29 22:31N 35°38' E 139°46'1 0.6
2016-Jun-29 21:34N 35°37' E 139°46'1211.9
2016-Jun-29 20:34N 35°26' E 139°48'1111.1
2016-Jun-29 19:33N 35°15' E 139°47'1616.3
2016-Jun-29 18:34N 34°59' E 139°43'1414.5
2016-Jun-29 17:33N 34°52' E 139°58'1918.5
2016-Jun-29 16:33N 35°01' E 140°18'1818.5
2016-Jun-29 15:34N 35°13' E 140°35'2118.7
2016-Jun-29 14:25N 35°31' E 140°50'1919.6
2016-Jun-29 13:27N 35°47' E 141°01'2119.8
2016-Jun-29 12:25N 36°08' E 141°04'  
2016-Jun-25 17:33N 35°37' E 140°57'2020.3
2016-Jun-25 16:34N 35°21' E 140°42'2421.0
2016-Jun-25 15:24N 35°02' E 140°23'1720.4
2016-Jun-25 14:33N 34°54' E 140°04'1818.1
2016-Jun-25 13:34N 34°54' E 139°42'1818.5
2016-Jun-25 12:34N 35°12' E 139°46'1313.2
2016-Jun-25 11:34N 35°25' E 139°44'1111.4
2016-Jun-25 10:34N 35°37' E 139°46'1 1.3
2016-Jun-25 09:34N 35°38' E 139°46'0 0.0
2016-Jun-25 08:27N 35°38' E 139°46'0 0.0
2016-Jun-25 07:30N 35°38' E 139°46'0 0.0
2016-Jun-25 06:30N 35°38' E 139°46'0 0.0
2016-Jun-25 05:33N 35°38' E 139°46'0 0.0
2016-Jun-25 04:34N 35°38' E 139°46'10 9.8
2016-Jun-25 03:34N 35°30' E 139°52'1413.5
2016-Jun-25 02:33N 35°18' E 139°45'1515.1
2016-Jun-25 01:33N 35°03' E 139°44'24317.3
2016-Jun-24 11:33N 34°04' E 134°57'1918.7
2016-Jun-24 10:33N 34°23' E 135°01'1919.2
2016-Jun-24 09:34N 34°34' E 135°19'5 5.2
2016-Jun-24 08:33N 34°37' E 135°25'0 0.0
2016-Jun-24 07:29N 34°37' E 135°25'0 0.0
2016-Jun-24 01:23N 34°37' E 135°25'0 0.0
2016-Jun-24 00:29N 34°37' E 135°25'6 6.5
2016-Jun-23 23:33N 34°34' E 135°18'1918.8
2016-Jun-23 22:32N 34°20' E 135°02'1919.2
2016-Jun-23 21:33N 34°02' E 134°59'24615.4
2016-Jun-23 05:33N 35°12' E 139°46'1313.5
2016-Jun-23 04:34N 35°25' E 139°44'1212.5
2016-Jun-23 03:33N 35°38' E 139°46'0 0.4
2016-Jun-23 02:34N 35°38' E 139°46'0 0.0
2016-Jun-23 01:33N 35°38' E 139°46'0 0.0
2016-Jun-23 00:34N 35°38' E 139°46'0 0.0
2016-Jun-22 23:34N 35°38' E 139°46'0 0.0
2016-Jun-22 22:31N 35°38' E 139°46'0 0.3
2016-Jun-22 21:33N 35°38' E 139°46'1211.5
2016-Jun-22 20:33N 35°27' E 139°50'1211.6
2016-Jun-22 19:33N 35°15' E 139°47'1616.3
2016-Jun-22 18:33N 34°59' E 139°43'1312.8
2016-Jun-22 17:30N 34°51' E 139°56'1616.8
2016-Jun-22 16:33N 34°59' E 140°12'1816.9
2016-Jun-22 15:31N 35°10' E 140°30'1616.6
2016-Jun-22 14:33N 35°22' E 140°42'1716.6
2016-Jun-22 13:33N 35°36' E 140°54'2517.6
2016-Jun-22 12:07N 35°60' E 141°04'1118.6
2016-Jun-22 11:33N 36°10' E 141°05'  

Dump ship's entire track history